Time;durP1;ratioP1;P1;durP2;ratioP2;P2;SDS_P1;SDS_P2;PMS_P1;PMS_P2;Temp;Humidity;BMP_temperature;BMP_pressure;BME280_temperature;BME280_humidity;BME280_pressure;Samples;Min_cycle;Max_cycle;Signal;HPM_P1;HPM_P2
2023/08/25 00:00:50;;;;;;;7.93;6.45;;;29.10;96.70;;;;;;5040122;28;20130;-72
2023/08/25 00:03:19;;;;;;;7.07;6.07;;;29.00;96.70;;;;;;5042965;28;20474;-73
2023/08/25 00:05:52;;;;;;;6.85;6.13;;;29.00;96.70;;;;;;5024621;28;20091;-74
2023/08/25 00:08:21;;;;;;;7.18;6.47;;;29.10;96.70;;;;;;5024018;28;20043;-74
2023/08/25 00:10:50;;;;;;;6.63;6.13;;;29.10;96.70;;;;;;5039315;28;20124;-73
2023/08/25 00:13:20;;;;;;;7.00;6.40;;;29.10;96.70;;;;;;5039327;28;20121;-73
2023/08/25 00:15:51;;;;;;;7.53;6.20;;;29.10;96.70;;;;;;5025931;28;20045;-73
2023/08/25 00:18:19;;;;;;;7.47;6.38;;;29.10;96.70;;;;;;5041640;28;20148;-73
2023/08/25 00:20:48;;;;;;;7.30;6.10;;;29.00;96.70;;;;;;5044115;28;20044;-73
2023/08/25 00:23:17;;;;;;;9.02;6.35;;;29.10;96.70;;;;;;5037902;28;20045;-74
2023/08/25 00:25:45;;;;;;;7.13;6.53;;;29.20;96.70;;;;;;5042990;28;20546;-73
2023/08/25 00:28:13;;;;;;;6.78;6.20;;;29.10;96.70;;;;;;5028830;28;20125;-73
2023/08/25 00:30:41;;;;;;;8.63;7.05;;;29.00;96.70;;;;;;5024575;28;20063;-74
2023/08/25 00:33:11;;;;;;;7.57;6.43;;;28.90;96.70;;;;;;5014518;28;20056;-74
2023/08/25 00:35:41;;;;;;;6.47;5.97;;;29.00;96.70;;;;;;5016900;28;20598;-74
2023/08/25 00:38:10;;;;;;;6.90;6.30;;;29.00;96.70;;;;;;5035064;28;20052;-75
2023/08/25 00:40:38;;;;;;;6.75;6.15;;;28.90;96.70;;;;;;5026220;28;20102;-75
2023/08/25 00:43:06;;;;;;;6.57;6.07;;;28.80;96.70;;;;;;5018542;28;20049;-75
2023/08/25 00:45:38;;;;;;;10.30;6.20;;;28.80;96.70;;;;;;5027578;28;20049;-75
2023/08/25 00:48:07;;;;;;;6.82;5.75;;;28.70;96.70;;;;;;5034901;28;20060;-74
2023/08/25 00:50:39;;;;;;;7.32;5.88;;;28.70;96.70;;;;;;5048204;28;20833;-74
2023/08/25 00:53:10;;;;;;;5.88;5.38;;;28.70;96.70;;;;;;5030365;28;20047;-73
2023/08/25 00:55:39;;;;;;;7.45;6.53;;;28.80;96.70;;;;;;5029297;28;20131;-74
2023/08/25 00:58:09;;;;;;;8.95;6.03;;;28.80;96.70;;;;;;5024534;28;20053;-74
2023/08/25 01:00:39;;;;;;;8.27;6.30;;;28.80;96.70;;;;;;5059100;28;20052;-74
2023/08/25 01:03:07;;;;;;;7.88;6.57;;;28.70;96.70;;;;;;5037580;28;20037;-74
2023/08/25 01:05:39;;;;;;;8.60;6.43;;;28.60;96.70;;;;;;5032277;28;20143;-74
2023/08/25 01:08:07;;;;;;;7.18;6.47;;;28.60;96.70;;;;;;5021303;28;20582;-73
2023/08/25 01:10:47;;;;;;;7.47;6.57;;;28.50;96.70;;;;;;5022166;28;20511;-74
2023/08/25 01:13:23;;;;;;;6.60;6.00;;;28.40;96.70;;;;;;5021107;28;20144;-74
2023/08/25 01:15:54;;;;;;;6.72;6.22;;;28.30;96.70;;;;;;5035966;28;20390;-74
2023/08/25 01:18:29;;;;;;;7.00;6.18;;;28.40;96.70;;;;;;5045306;28;20525;-74
2023/08/25 01:21:03;;;;;;;8.07;6.60;;;28.30;96.70;;;;;;5036167;28;20396;-74
2023/08/25 01:23:38;;;;;;;7.80;6.90;;;28.40;96.70;;;;;;5025017;28;20044;-74
2023/08/25 01:26:09;;;;;;;7.47;6.57;;;28.40;96.70;;;;;;5040788;28;20044;-75
2023/08/25 01:28:41;;;;;;;7.25;6.50;;;28.40;96.70;;;;;;5034494;28;20045;-73
2023/08/25 01:31:09;;;;;;;7.90;7.10;;;28.20;96.70;;;;;;5041013;28;20053;-74
2023/08/25 01:33:39;;;;;;;7.38;6.55;;;28.20;96.70;;;;;;5040187;28;20041;-74
2023/08/25 01:36:16;;;;;;;7.13;6.43;;;28.20;96.70;;;;;;5036215;28;20523;-75
2023/08/25 01:38:51;;;;;;;9.77;6.95;;;28.20;96.70;;;;;;5028599;28;20060;-74
2023/08/25 01:41:29;;;;;;;7.75;6.88;;;28.20;96.70;;;;;;5038745;28;20080;-73
2023/08/25 01:44:01;;;;;;;6.80;6.22;;;28.20;96.70;;;;;;5020508;28;20103;-73
2023/08/25 01:46:30;;;;;;;8.23;6.88;;;28.10;96.70;;;;;;5029095;28;20123;-74
2023/08/25 01:48:59;;;;;;;9.43;6.57;;;28.10;96.70;;;;;;5054606;28;20060;-73
2023/08/25 01:51:29;;;;;;;7.40;6.65;;;28.00;96.70;;;;;;5029765;28;20733;-74
2023/08/25 01:53:57;;;;;;;6.78;6.18;;;28.00;96.70;;;;;;5031566;28;20056;-74
2023/08/25 01:56:27;;;;;;;7.35;6.63;;;28.10;96.70;;;;;;5041578;28;20483;-74
2023/08/25 01:58:55;;;;;;;7.95;6.68;;;28.00;96.70;;;;;;5045423;28;20049;-74
2023/08/25 02:01:25;;;;;;;7.10;6.32;;;27.80;96.70;;;;;;5042455;28;20041;-73
2023/08/25 02:03:54;;;;;;;7.40;6.25;;;27.80;96.70;;;;;;5036670;28;20057;-74
2023/08/25 02:06:25;;;;;;;6.95;6.15;;;27.90;96.70;;;;;;5025588;28;20045;-74
2023/08/25 02:08:54;;;;;;;10.20;7.00;;;27.80;96.70;;;;;;5044518;28;20168;-73
2023/08/25 02:11:23;;;;;;;7.68;6.97;;;28.00;96.70;;;;;;5025490;28;20037;-73
2023/08/25 02:13:53;;;;;;;7.82;6.85;;;28.00;96.70;;;;;;5026951;28;20052;-73
2023/08/25 02:16:21;;;;;;;7.90;7.07;;;28.00;96.70;;;;;;5045284;28;20162;-74
2023/08/25 02:18:49;;;;;;;17.63;6.82;;;27.90;96.70;;;;;;5035706;28;20049;-74
2023/08/25 02:21:17;;;;;;;7.25;6.25;;;27.80;96.70;;;;;;5041065;28;20139;-74
2023/08/25 02:23:46;;;;;;;7.10;6.50;;;27.70;96.70;;;;;;5008677;28;20725;-74
2023/08/25 02:26:14;;;;;;;7.82;7.03;;;27.70;96.70;;;;;;5043704;28;20647;-75
2023/08/25 02:28:43;;;;;;;8.02;7.00;;;27.60;96.70;;;;;;5019266;28;20079;-74
2023/08/25 02:31:12;;;;;;;8.13;7.30;;;27.60;96.70;;;;;;5041007;28;20053;-73
2023/08/25 02:33:41;;;;;;;7.63;6.93;;;27.70;96.70;;;;;;5030861;28;20079;-73
2023/08/25 02:36:09;;;;;;;7.95;7.20;;;27.60;96.70;;;;;;5043191;28;20037;-73
2023/08/25 02:38:37;;;;;;;7.63;6.80;;;27.60;96.70;;;;;;5011097;28;20069;-74
2023/08/25 02:41:05;;;;;;;9.98;6.60;;;27.60;96.70;;;;;;5030389;28;20484;-73
2023/08/25 02:43:33;;;;;;;7.78;7.00;;;27.60;96.70;;;;;;5034875;28;20136;-74
2023/08/25 02:46:01;;;;;;;8.82;6.95;;;27.60;96.70;;;;;;5032771;28;20045;-73
2023/08/25 02:48:32;;;;;;;7.75;7.07;;;27.60;96.70;;;;;;5044440;28;20052;-73
2023/08/25 02:51:01;;;;;;;7.22;6.55;;;27.50;96.70;;;;;;5037406;28;20629;-73
2023/08/25 02:53:30;;;;;;;7.15;6.50;;;27.50;96.70;;;;;;5040594;28;20081;-74
2023/08/25 02:55:58;;;;;;;8.90;6.88;;;27.30;96.70;;;;;;5043268;28;20462;-74
2023/08/25 02:58:27;;;;;;;7.07;6.15;;;27.20;96.70;;;;;;5038842;28;20056;-73
2023/08/25 03:00:55;;;;;;;7.63;6.95;;;27.10;96.70;;;;;;5018082;28;20388;-73
2023/08/25 03:03:23;;;;;;;6.85;6.25;;;27.10;96.70;;;;;;5041538;28;20041;-73
2023/08/25 03:05:58;;;;;;;7.00;6.40;;;27.00;96.70;;;;;;5033041;28;20136;-73
2023/08/25 03:08:27;;;;;;;8.95;6.72;;;27.00;96.70;;;;;;5034165;28;20072;-73
2023/08/25 03:10:55;;;;;;;7.75;6.97;;;27.20;96.70;;;;;;5008263;28;20049;-73
2023/08/25 03:13:23;;;;;;;7.75;6.85;;;27.20;96.70;;;;;;5036838;28;20049;-73
2023/08/25 03:15:56;;;;;;;7.32;6.63;;;27.20;96.70;;;;;;5018271;28;20057;-73
2023/08/25 03:18:25;;;;;;;7.43;6.72;;;27.20;96.70;;;;;;5042270;28;20148;-73
2023/08/25 03:20:55;;;;;;;7.72;6.93;;;27.20;96.70;;;;;;5042984;28;20411;-74
2023/08/25 03:23:24;;;;;;;7.60;6.82;;;27.10;96.70;;;;;;5012899;28;20056;-74
2023/08/25 03:25:52;;;;;;;7.50;6.82;;;27.00;96.70;;;;;;5043455;28;20119;-74
2023/08/25 03:28:20;;;;;;;7.15;5.90;;;26.90;96.70;;;;;;5037935;28;20044;-73
2023/08/25 03:30:51;;;;;;;10.00;6.60;;;26.90;96.70;;;;;;5036084;28;20064;-73
2023/08/25 03:33:22;;;;;;;6.72;6.03;;;26.90;96.70;;;;;;5043089;28;20049;-73
2023/08/25 03:35:51;;;;;;;6.97;6.15;;;26.80;96.70;;;;;;5026625;28;20514;-74
2023/08/25 03:38:21;;;;;;;8.57;6.00;;;26.80;96.70;;;;;;5018565;28;20046;-73
2023/08/25 03:40:58;;;;;;;8.32;6.50;;;26.80;96.70;;;;;;5028206;28;20120;-73
2023/08/25 03:43:26;;;;;;;7.88;6.22;;;26.80;96.70;;;;;;5029190;28;20065;-73
2023/08/25 03:45:55;;;;;;;6.93;6.22;;;26.70;96.70;;;;;;5024371;28;20064;-74
2023/08/25 03:48:25;;;;;;;7.00;6.28;;;26.70;96.70;;;;;;5031266;28;20045;-73
2023/08/25 03:50:53;;;;;;;7.28;6.55;;;26.70;96.70;;;;;;5044090;28;20487;-73
2023/08/25 03:53:23;;;;;;;7.93;7.03;;;26.70;96.70;;;;;;5035730;28;20451;-73
2023/08/25 03:55:52;;;;;;;7.90;6.90;;;26.70;96.70;;;;;;5041205;28;20132;-73
2023/08/25 03:58:20;;;;;;;8.85;6.65;;;26.70;96.70;;;;;;5040273;28;20061;-73
2023/08/25 04:00:54;;;;;;;7.82;6.88;;;26.70;96.70;;;;;;5044142;28;20052;-73
2023/08/25 04:03:23;;;;;;;7.50;6.90;;;26.70;96.70;;;;;;5044412;28;20055;-73
2023/08/25 04:05:51;;;;;;;8.05;7.15;;;26.70;96.70;;;;;;5041405;28;20463;-73
2023/08/25 04:08:20;;;;;;;7.78;6.97;;;26.60;96.70;;;;;;5040830;28;20055;-74
2023/08/25 04:10:49;;;;;;;9.02;7.30;;;26.50;96.70;;;;;;5039386;28;20075;-73
2023/08/25 04:13:18;;;;;;;9.27;7.25;;;26.50;96.70;;;;;;5022728;28;20582;-73
2023/08/25 04:15:54;;;;;;;8.98;7.30;;;26.50;96.70;;;;;;5036575;28;20069;-74
2023/08/25 04:18:24;;;;;;;9.90;6.82;;;26.40;96.70;;;;;;5040389;28;20116;-73
2023/08/25 04:20:53;;;;;;;10.15;7.03;;;26.40;96.70;;;;;;5040471;28;20148;-74
2023/08/25 04:23:24;;;;;;;7.90;7.10;;;26.30;96.70;;;;;;5033357;28;20061;-73
2023/08/25 04:25:55;;;;;;;7.47;6.88;;;26.20;96.70;;;;;;5042566;28;20498;-74
2023/08/25 04:28:25;;;;;;;9.75;7.35;;;26.20;96.70;;;;;;5034711;28;20045;-73
2023/08/25 04:30:54;;;;;;;8.60;7.68;;;26.20;96.70;;;;;;5064859;28;20567;-73
2023/08/25 04:33:26;;;;;;;7.40;6.70;;;26.20;96.70;;;;;;5026233;28;20555;-72
2023/08/25 04:35:57;;;;;;;8.80;7.60;;;26.20;96.70;;;;;;5016545;28;20109;-75
2023/08/25 04:38:25;;;;;;;8.38;7.30;;;26.20;96.70;;;;;;5027818;28;20048;-74
2023/08/25 04:40:56;;;;;;;9.73;7.55;;;26.20;96.70;;;;;;5022825;28;20840;-73
2023/08/25 04:43:25;;;;;;;8.48;7.45;;;26.10;96.70;;;;;;5021110;28;20091;-73
2023/08/25 04:45:53;;;;;;;9.13;7.45;;;26.20;96.70;;;;;;5031075;28;20123;-73
2023/08/25 04:48:25;;;;;;;9.57;7.03;;;26.20;96.70;;;;;;5031946;28;20099;-73
2023/08/25 04:50:56;;;;;;;7.82;7.03;;;26.30;96.70;;;;;;5041690;28;20099;-74
2023/08/25 04:53:24;;;;;;;8.70;7.13;;;26.30;96.70;;;;;;5037040;28;20045;-73
2023/08/25 04:55:53;;;;;;;6.75;6.22;;;26.30;96.70;;;;;;5038747;28;20042;-73
2023/08/25 04:58:23;;;;;;;9.65;7.80;;;26.30;96.70;;;;;;5031120;28;20117;-72
2023/08/25 05:00:54;;;;;;;10.05;7.95;;;26.30;96.70;;;;;;5028422;28;20399;-74
2023/08/25 05:03:23;;;;;;;8.20;7.40;;;26.30;96.70;;;;;;5042237;28;20045;-73
2023/08/25 05:05:52;;;;;;;11.85;8.30;;;26.10;96.70;;;;;;5019724;28;20049;-73
2023/08/25 05:08:21;;;;;;;8.98;8.00;;;26.10;96.70;;;;;;5029809;28;20045;-73
2023/08/25 05:10:51;;;;;;;10.57;7.97;;;26.10;96.70;;;;;;5007011;28;20041;-74
2023/08/25 05:13:22;;;;;;;9.32;8.43;;;26.20;96.70;;;;;;5001308;28;20052;-73
2023/08/25 05:15:50;;;;;;;9.25;8.40;;;26.30;96.70;;;;;;5035532;28;20178;-73
2023/08/25 05:18:36;;;;;;;11.45;9.15;;;26.40;96.70;;;;;;5041700;28;20052;-73
2023/08/25 05:21:06;;;;;;;10.50;9.40;;;26.30;96.70;;;;;;5024379;28;20045;-73
2023/08/25 05:23:35;;;;;;;13.60;10.15;;;26.30;96.70;;;;;;5016393;28;20447;-73
2023/08/25 05:26:04;;;;;;;11.65;9.57;;;26.40;96.70;;;;;;5025247;28;20049;-74
2023/08/25 05:28:33;;;;;;;10.73;9.23;;;26.40;96.70;;;;;;5038749;28;20088;-73
2023/08/25 05:31:03;;;;;;;12.95;10.93;;;26.40;96.70;;;;;;5033266;28;20080;-74
2023/08/25 05:34:02;;;;;;;12.18;10.93;;;26.30;96.70;;;;;;5028904;28;20053;-73
2023/08/25 05:36:38;;;;;;;12.02;10.18;;;26.50;96.70;;;;;;5030524;28;20095;-73
2023/08/25 05:39:07;;;;;;;10.10;8.98;;;26.50;96.70;;;;;;5022198;28;20060;-73
2023/08/25 05:41:36;;;;;;;8.95;8.07;;;26.60;96.70;;;;;;5021586;28;20136;-73
2023/08/25 05:44:06;;;;;;;11.75;8.15;;;26.60;96.70;;;;;;5034914;28;20441;-73
2023/08/25 05:46:34;;;;;;;8.25;7.50;;;26.60;96.70;;;;;;5036244;28;20052;-73
2023/08/25 05:49:03;;;;;;;9.50;7.40;;;26.60;96.70;;;;;;5040940;28;20037;-73
2023/08/25 05:51:31;;;;;;;9.27;7.22;;;26.70;96.70;;;;;;5027941;28;20458;-73
2023/08/25 05:53:59;;;;;;;7.82;7.07;;;26.70;96.70;;;;;;5039130;28;20075;-73
2023/08/25 05:56:28;;;;;;;8.85;8.00;;;26.70;96.70;;;;;;5030014;28;20081;-74
2023/08/25 05:59:00;;;;;;;8.25;7.45;;;26.70;96.70;;;;;;5026531;28;20533;-73
2023/08/25 06:01:30;;;;;;;7.60;6.82;;;26.70;96.70;;;;;;5039528;28;20041;-73
2023/08/25 06:04:01;;;;;;;12.35;7.32;;;26.80;96.70;;;;;;5031885;28;20053;-75
2023/08/25 06:06:30;;;;;;;8.55;6.90;;;26.70;96.70;;;;;;5019282;28;20529;-74
2023/08/25 06:08:58;;;;;;;8.77;7.13;;;26.70;96.70;;;;;;5035979;28;20545;-73
2023/08/25 06:11:27;;;;;;;8.18;7.47;;;26.80;96.70;;;;;;5033858;28;20252;-73
2023/08/25 06:13:55;;;;;;;9.52;8.00;;;26.80;96.70;;;;;;5028465;28;20041;-74
2023/08/25 06:16:24;;;;;;;10.27;7.80;;;26.80;96.70;;;;;;5038667;28;20045;-73
2023/08/25 06:18:53;;;;;;;11.40;7.60;;;26.90;96.70;;;;;;5036386;28;20475;-73
2023/08/25 06:21:22;;;;;;;10.98;7.13;;;26.90;96.70;;;;;;5019343;28;20038;-74
2023/08/25 06:23:50;;;;;;;8.55;7.55;;;26.80;96.70;;;;;;5030983;28;20037;-74
2023/08/25 06:26:19;;;;;;;9.93;7.43;;;26.90;96.70;;;;;;5021839;28;20053;-74
2023/08/25 06:28:48;;;;;;;13.63;7.55;;;27.00;96.70;;;;;;5035724;28;20045;-73
2023/08/25 06:31:16;;;;;;;8.07;7.28;;;27.10;96.70;;;;;;5042357;28;20081;-73
2023/08/25 06:33:45;;;;;;;10.55;8.88;;;27.10;96.70;;;;;;5030184;28;20508;-73
2023/08/25 06:36:15;;;;;;;11.27;8.85;;;27.10;96.70;;;;;;5030113;28;20049;-73
2023/08/25 06:38:44;;;;;;;10.02;9.02;;;27.10;96.70;;;;;;5031077;28;20115;-73
2023/08/25 06:41:24;;;;;;;9.85;8.63;;;27.10;96.70;;;;;;5036944;28;20598;-73
2023/08/25 06:43:53;;;;;;;9.73;8.73;;;27.30;96.70;;;;;;5023567;28;20104;-74
2023/08/25 06:46:21;;;;;;;9.80;8.90;;;27.30;96.70;;;;;;5023326;28;20503;-75
2023/08/25 06:48:50;;;;;;;10.30;9.30;;;27.40;96.70;;;;;;5028843;28;20052;-74
2023/08/25 06:51:20;;;;;;;9.65;8.68;;;27.40;96.70;;;;;;5038101;28;20137;-75
2023/08/25 06:53:48;;;;;;;12.32;9.52;;;27.50;96.70;;;;;;5025582;28;20041;-76
2023/08/25 06:56:17;;;;;;;10.80;9.70;;;27.50;96.70;;;;;;5024241;28;20058;-75
2023/08/25 06:58:45;;;;;;;10.55;9.00;;;27.50;96.70;;;;;;5032017;28;20123;-75
2023/08/25 07:01:13;;;;;;;10.18;9.10;;;27.60;96.70;;;;;;5036645;28;20167;-76
2023/08/25 07:03:42;;;;;;;11.15;10.13;;;27.60;96.70;;;;;;5032717;28;20072;-76
2023/08/25 07:06:10;;;;;;;10.50;9.50;;;27.60;96.70;;;;;;5024297;28;20123;-75
2023/08/25 07:08:40;;;;;;;10.32;9.32;;;27.60;96.70;;;;;;5024022;28;20037;-75
2023/08/25 07:11:09;;;;;;;10.43;9.50;;;27.80;96.70;;;;;;5024176;28;20045;-76
2023/08/25 07:13:37;;;;;;;10.27;9.25;;;27.80;96.70;;;;;;5016884;28;20217;-76
2023/08/25 07:16:05;;;;;;;11.65;9.93;;;27.90;96.70;;;;;;5031519;28;20537;-76
2023/08/25 07:18:33;;;;;;;10.85;9.57;;;27.90;96.70;;;;;;5017507;28;20056;-74
2023/08/25 07:21:06;;;;;;;10.80;9.80;;;27.90;96.70;;;;;;5024666;28;20077;-74
2023/08/25 07:23:34;;;;;;;11.07;10.07;;;28.00;96.70;;;;;;5004570;28;20469;-74
2023/08/25 07:26:04;;;;;;;10.27;9.27;;;28.00;96.70;;;;;;5026613;28;20092;-74
2023/08/25 07:28:32;;;;;;;10.35;8.75;;;28.10;96.70;;;;;;5035509;28;20048;-74
2023/08/25 07:31:00;;;;;;;12.88;9.32;;;28.20;96.70;;;;;;5018884;28;20440;-74
2023/08/25 07:33:29;;;;;;;10.55;9.55;;;28.10;96.70;;;;;;5021879;28;20136;-75
2023/08/25 07:35:58;;;;;;;10.27;8.95;;;28.20;96.70;;;;;;5024286;28;20049;-75
2023/08/25 07:38:26;;;;;;;12.75;8.95;;;28.40;96.70;;;;;;5036142;28;20470;-75
2023/08/25 07:40:56;;;;;;;10.13;9.07;;;28.50;96.70;;;;;;5025706;28;20049;-74
2023/08/25 07:43:25;;;;;;;8.90;8.10;;;28.40;96.70;;;;;;5010445;28;20075;-75
2023/08/25 07:45:54;;;;;;;9.80;8.73;;;28.60;96.70;;;;;;5041565;28;20103;-75
2023/08/25 07:48:23;;;;;;;9.35;8.50;;;28.70;96.70;;;;;;5041549;28;20048;-76
2023/08/25 07:50:51;;;;;;;9.05;8.25;;;28.70;96.70;;;;;;5044623;28;20045;-75
2023/08/25 07:53:19;;;;;;;9.30;7.97;;;28.80;96.70;;;;;;5034083;28;20037;-74
2023/08/25 07:55:47;;;;;;;8.82;8.00;;;28.90;96.70;;;;;;5006352;28;20833;-75
2023/08/25 07:58:15;;;;;;;8.82;7.45;;;28.90;96.70;;;;;;5003064;28;20402;-75
2023/08/25 08:00:45;;;;;;;9.27;8.38;;;28.90;96.70;;;;;;5023686;28;20040;-74
2023/08/25 08:03:14;;;;;;;10.30;8.27;;;29.00;96.70;;;;;;5031981;28;20595;-77
2023/08/25 08:05:43;;;;;;;10.52;7.85;;;29.10;96.70;;;;;;5033805;28;20049;-78
2023/08/25 08:08:11;;;;;;;9.02;8.10;;;29.20;96.70;;;;;;5027221;28;20050;-80
2023/08/25 08:10:39;;;;;;;8.70;7.93;;;29.20;96.70;;;;;;5036452;28;20091;-77
2023/08/25 08:13:08;;;;;;;8.63;7.75;;;29.20;96.70;;;;;;5040136;28;20044;-77
2023/08/25 08:15:36;;;;;;;10.20;8.15;;;29.30;96.70;;;;;;5034348;28;20110;-75
2023/08/25 08:18:05;;;;;;;9.18;8.30;;;29.40;96.70;;;;;;5044252;28;20148;-75
2023/08/25 08:20:34;;;;;;;8.88;7.90;;;29.40;96.70;;;;;;5031030;28;20389;-74
2023/08/25 08:23:02;;;;;;;9.35;7.70;;;29.50;96.70;;;;;;5020768;28;20049;-74
2023/08/25 08:25:30;;;;;;;9.32;7.50;;;29.50;96.70;;;;;;5026703;28;20454;-75
2023/08/25 08:27:58;;;;;;;8.95;8.07;;;29.50;96.70;;;;;;5033060;28;20528;-75
2023/08/25 08:30:26;;;;;;;10.55;7.35;;;29.60;96.70;;;;;;5023897;28;20511;-76
2023/08/25 08:32:54;;;;;;;9.25;8.38;;;29.70;96.70;;;;;;5021645;28;20093;-76
2023/08/25 08:35:24;;;;;;;8.25;7.53;;;29.80;96.70;;;;;;5019818;28;20088;-76
2023/08/25 08:37:52;;;;;;;8.57;7.78;;;29.90;96.70;;;;;;5023892;28;20053;-76
2023/08/25 08:40:21;;;;;;;9.40;7.93;;;30.00;96.70;;;;;;5023734;28;20474;-75
2023/08/25 08:42:52;;;;;;;8.10;7.30;;;30.10;96.70;;;;;;5002748;28;20678;-79
2023/08/25 08:45:26;;;;;;;8.93;8.13;;;30.10;96.70;;;;;;5021499;28;20073;-78
2023/08/25 08:47:55;;;;;;;9.00;8.10;;;30.10;96.70;;;;;;5015350;28;20049;-83
2023/08/25 08:50:25;;;;;;;9.95;8.02;;;30.10;96.70;;;;;;5023350;28;20060;-80
2023/08/25 08:52:54;;;;;;;8.57;7.47;;;30.10;96.70;;;;;;5020354;28;20045;-78
2023/08/25 08:55:22;;;;;;;8.40;7.60;;;30.20;96.70;;;;;;5023555;28;20152;-78
2023/08/25 08:57:50;;;;;;;8.50;7.75;;;30.30;96.70;;;;;;5021491;28;20041;-79
2023/08/25 09:00:20;;;;;;;8.93;8.02;;;30.40;96.70;;;;;;5014812;28;20503;-75
2023/08/25 09:02:53;;;;;;;8.25;7.45;;;30.50;96.70;;;;;;5022857;28;20046;-76
2023/08/25 09:05:24;;;;;;;8.68;7.00;;;30.60;96.70;;;;;;5005653;28;20046;-76
2023/08/25 09:07:59;;;;;;;9.10;7.47;;;30.70;96.70;;;;;;5021930;28;20049;-75
2023/08/25 09:10:28;;;;;;;8.02;7.07;;;30.80;96.70;;;;;;5021971;28;20622;-75
2023/08/25 09:12:56;;;;;;;7.35;6.68;;;30.90;96.70;;;;;;5022028;28;20049;-75
2023/08/25 09:15:26;;;;;;;7.97;7.18;;;31.00;96.70;;;;;;5021238;28;20041;-75
2023/08/25 09:18:02;;;;;;;6.65;6.15;;;31.00;96.70;;;;;;5023011;28;20116;-74
2023/08/25 09:20:34;;;;;;;8.48;7.57;;;31.00;96.70;;;;;;5002452;28;20049;-75
2023/08/25 09:23:05;;;;;;;7.97;7.28;;;31.20;96.70;;;;;;5018288;28;20069;-75
2023/08/25 09:25:33;;;;;;;7.97;7.38;;;31.30;96.70;;;;;;5020506;28;20065;-75
2023/08/25 09:28:03;;;;;;;7.90;7.05;;;31.30;96.70;;;;;;5020703;28;20048;-76
2023/08/25 09:30:36;;;;;;;7.30;6.63;;;31.40;96.70;;;;;;5043321;28;20052;-75
2023/08/25 09:33:06;;;;;;;7.75;6.97;;;31.50;96.70;;;;;;5044428;28;20044;-73
2023/08/25 09:35:35;;;;;;;8.68;6.70;;;31.60;96.70;;;;;;5051984;28;20037;-74
2023/08/25 09:38:05;;;;;;;8.13;6.70;;;31.60;96.70;;;;;;5046018;28;20070;-75
2023/08/25 09:40:36;;;;;;;10.88;7.05;;;31.70;96.70;;;;;;5049333;28;20048;-73
2023/08/25 09:43:05;;;;;;;7.32;6.53;;;31.80;96.70;;;;;;5049068;28;20419;-74
2023/08/25 09:45:33;;;;;;;7.15;6.35;;;32.00;96.70;;;;;;5047570;28;20040;-74
2023/08/25 09:48:09;;;;;;;7.53;6.93;;;32.10;96.70;;;;;;5047898;28;20517;-74
2023/08/25 09:50:38;;;;;;;8.07;6.55;;;32.20;96.70;;;;;;5064042;28;20609;-75
2023/08/25 09:53:09;;;;;;;7.32;6.65;;;32.30;96.70;;;;;;5044617;28;20057;-74
2023/08/25 09:55:38;;;;;;;8.75;7.07;;;32.30;96.70;;;;;;5031488;28;20558;-74
2023/08/25 09:58:07;;;;;;;7.43;6.57;;;32.40;96.70;;;;;;5057963;28;20046;-74
2023/08/25 10:00:36;;;;;;;7.53;6.82;;;32.50;96.70;;;;;;5066242;28;20102;-74
2023/08/25 10:03:08;;;;;;;7.20;6.20;;;32.70;96.70;;;;;;5048168;28;20055;-74
2023/08/25 10:05:38;;;;;;;8.82;6.55;;;32.70;96.70;;;;;;5050557;28;20044;-75
2023/08/25 10:08:09;;;;;;;6.22;5.72;;;32.80;96.70;;;;;;5047141;28;20099;-74
2023/08/25 10:10:38;;;;;;;9.07;6.20;;;33.00;96.70;;;;;;5038560;28;20071;-74
2023/08/25 10:13:11;;;;;;;8.18;6.40;;;33.10;96.70;;;;;;5047955;28;20556;-75
2023/08/25 10:15:42;;;;;;;7.50;6.28;;;33.10;96.70;;;;;;5054055;28;20049;-75
2023/08/25 10:18:11;;;;;;;7.57;6.55;;;33.10;96.70;;;;;;5031828;28;20502;-74
2023/08/25 10:20:42;;;;;;;7.40;6.25;;;33.20;96.70;;;;;;5065171;28;20033;-74
2023/08/25 10:23:12;;;;;;;7.70;6.70;;;33.30;96.70;;;;;;5066018;28;20044;-75
2023/08/25 10:25:41;;;;;;;6.70;6.20;;;33.40;96.70;;;;;;5048667;28;20040;-75
2023/08/25 10:28:09;;;;;;;7.13;6.47;;;33.40;96.70;;;;;;5050586;28;20064;-74
2023/08/25 10:30:38;;;;;;;6.95;6.45;;;33.50;96.70;;;;;;5049061;28;20089;-75
2023/08/25 10:33:10;;;;;;;8.65;6.65;;;33.60;96.70;;;;;;5047294;28;20041;-75
2023/08/25 10:35:43;;;;;;;8.38;6.85;;;33.70;96.70;;;;;;5029205;28;20408;-73
2023/08/25 10:38:39;;;;;;;7.85;6.78;;;33.70;96.70;;;;;;5048135;28;20032;-74
2023/08/25 10:41:18;;;;;;;7.20;6.50;;;33.70;96.70;;;;;;5046992;28;20115;-75
2023/08/25 10:43:52;;;;;;;6.95;6.35;;;33.90;96.70;;;;;;5044558;28;20543;-73
2023/08/25 10:46:21;;;;;;;6.75;6.15;;;34.00;96.70;;;;;;5077724;28;20086;-74
2023/08/25 10:49:11;;;;;;;6.80;6.20;;;34.10;96.70;;;;;;5031047;28;20060;-75
2023/08/25 10:51:39;;;;;;;7.13;6.53;;;34.30;96.70;;;;;;5047708;28;20128;-74
2023/08/25 10:54:18;;;;;;;9.05;7.22;;;34.30;96.70;;;;;;5070774;28;20044;-74
2023/08/25 10:56:51;;;;;;;8.90;6.68;;;34.50;96.70;;;;;;5065030;28;20048;-74
2023/08/25 10:59:21;;;;;;;6.72;6.18;;;34.70;96.70;;;;;;5037275;28;20106;-75
2023/08/25 11:01:58;;;;;;;6.60;6.00;;;34.70;96.70;;;;;;5046743;28;20048;-75
2023/08/25 11:04:29;;;;;;;6.43;5.78;;;34.70;96.70;;;;;;5051176;28;20041;-75
2023/08/25 11:06:59;;;;;;;5.90;5.28;;;34.80;96.70;;;;;;5047520;28;20104;-74
2023/08/25 11:09:33;;;;;;;7.45;5.60;;;34.90;96.70;;;;;;5046129;28;20055;-74
2023/08/25 11:12:04;;;;;;;6.50;5.90;;;35.00;96.70;;;;;;5044312;28;20076;-75
2023/08/25 11:14:34;;;;;;;7.38;6.03;;;35.10;96.70;;;;;;5047226;28;20483;-76
2023/08/25 11:17:04;;;;;;;5.78;5.28;;;35.20;96.70;;;;;;5049144;28;20045;-75
2023/08/25 11:19:35;;;;;;;6.90;6.18;;;35.30;96.70;;;;;;5042834;28;20045;-75
2023/08/25 11:22:05;;;;;;;7.78;5.43;;;35.40;96.70;;;;;;5056116;28;20036;-76
2023/08/25 11:24:35;;;;;;;7.30;6.13;;;35.40;96.70;;;;;;5043873;28;20040;-75
2023/08/25 11:27:05;;;;;;;6.57;5.53;;;35.50;96.70;;;;;;5046244;28;20559;-74
2023/08/25 11:29:33;;;;;;;11.85;5.93;;;35.50;96.70;;;;;;5030115;28;20051;-75
2023/08/25 11:32:02;;;;;;;7.15;5.60;;;35.60;96.70;;;;;;5049787;28;20072;-74
2023/08/25 11:34:31;;;;;;;6.53;5.93;;;35.70;96.70;;;;;;5078287;28;20143;-74
2023/08/25 11:36:59;;;;;;;6.97;6.20;;;35.70;96.70;;;;;;5043524;28;20252;-75
2023/08/25 11:39:27;;;;;;;6.68;6.00;;;35.80;96.70;;;;;;5045973;28;20052;-77
2023/08/25 11:41:57;;;;;;;8.10;6.22;;;35.90;96.70;;;;;;5045750;28;20037;-77
2023/08/25 11:44:26;;;;;;;6.20;5.60;;;36.00;96.70;;;;;;5046637;28;20075;-77
2023/08/25 11:46:54;;;;;;;10.60;6.10;;;36.10;96.70;;;;;;5046274;28;20045;-76
2023/08/25 11:49:28;;;;;;;8.95;5.93;;;36.20;96.70;;;;;;5043534;28;20100;-76
2023/08/25 11:51:58;;;;;;;6.70;6.00;;;36.30;96.70;;;;;;5048249;28;20491;-76
2023/08/25 11:54:26;;;;;;;8.73;6.00;;;36.30;96.70;;;;;;5030039;28;20086;-77
2023/08/25 11:56:56;;;;;;;7.20;5.90;;;36.40;96.70;;;;;;5047146;28;20061;-75
2023/08/25 11:59:29;;;;;;;8.10;5.75;;;36.40;96.70;;;;;;5054406;28;20498;-76
2023/08/25 12:02:02;;;;;;;7.18;5.78;;;36.50;96.70;;;;;;5043116;28;20049;-76
2023/08/25 12:04:30;;;;;;;6.93;5.93;;;36.60;96.70;;;;;;5046562;28;20059;-77
2023/08/25 12:07:01;;;;;;;6.50;5.53;;;36.50;96.70;;;;;;5042675;28;20115;-76
2023/08/25 12:09:30;;;;;;;6.88;5.95;;;36.40;96.70;;;;;;5044987;28;20048;-75
2023/08/25 12:12:03;;;;;;;7.57;5.60;;;36.60;96.70;;;;;;5053608;28;20052;-75
2023/08/25 12:14:32;;;;;;;6.68;5.57;;;36.90;96.70;;;;;;5048995;28;20135;-75
2023/08/25 12:17:00;;;;;;;6.50;5.82;;;36.90;96.70;;;;;;5045731;28;20045;-75
2023/08/25 12:19:28;;;;;;;7.55;6.07;;;37.00;96.70;;;;;;5045622;28;20049;-75
2023/08/25 12:21:57;;;;;;;6.32;5.68;;;36.90;96.70;;;;;;5042732;28;20600;-74
2023/08/25 12:24:25;;;;;;;6.22;5.78;;;37.00;96.70;;;;;;5036192;28;20044;-75
2023/08/25 12:26:53;;;;;;;7.93;6.18;;;37.10;96.70;;;;;;5042774;28;20061;-75
2023/08/25 12:29:23;;;;;;;7.00;6.30;;;37.10;96.70;;;;;;5045888;28;20371;-76
2023/08/25 12:31:53;;;;;;;6.07;5.47;;;37.30;96.70;;;;;;5045666;28;20485;-76
2023/08/25 12:34:21;;;;;;;5.53;5.10;;;37.20;96.70;;;;;;5045472;28;20068;-76
2023/08/25 12:36:49;;;;;;;5.80;5.30;;;37.10;96.70;;;;;;5046840;28;20048;-75
2023/08/25 12:39:18;;;;;;;5.40;4.90;;;37.10;96.70;;;;;;5048036;28;20098;-75
2023/08/25 12:41:46;;;;;;;7.40;4.88;;;37.20;96.70;;;;;;5055945;28;20045;-75
2023/08/25 12:44:14;;;;;;;5.03;4.63;;;37.20;96.70;;;;;;5045930;28;20066;-75
2023/08/25 12:46:44;;;;;;;5.80;5.30;;;37.30;96.70;;;;;;5045702;28;20055;-75
2023/08/25 12:49:12;;;;;;;6.93;4.30;;;37.40;96.70;;;;;;5049818;28;20466;-75
2023/08/25 12:51:41;;;;;;;5.22;4.63;;;37.40;96.70;;;;;;5027194;28;20044;-75
2023/08/25 12:54:14;;;;;;;6.50;5.00;;;37.50;96.70;;;;;;5050851;28;20056;-75
2023/08/25 12:56:42;;;;;;;4.65;4.20;;;37.50;96.70;;;;;;5045857;28;20441;-75
2023/08/25 12:59:10;;;;;;;5.30;4.68;;;37.40;96.70;;;;;;5046913;28;20052;-75